createdAt,value
2023-03-21T00:02:27.419Z,11.85
2023-03-21T00:05:30.161Z,11.91
2023-03-21T00:08:32.514Z,11.96
2023-03-21T00:11:35.703Z,12.04
2023-03-21T00:14:37.988Z,12.04
2023-03-21T00:17:40.797Z,12.02
2023-03-21T00:20:46.447Z,11.97
2023-03-21T00:23:48.978Z,11.95
2023-03-21T00:26:51.580Z,11.95
2023-03-21T00:29:54.365Z,11.96
2023-03-21T00:32:57.040Z,11.91
2023-03-21T00:36:05.210Z,11.95
2023-03-21T00:39:15.317Z,11.92
2023-03-21T00:42:18.221Z,11.90
2023-03-21T00:45:21.904Z,11.89
2023-03-21T00:48:25.834Z,11.86
2023-03-21T00:51:27.952Z,11.81
2023-03-21T00:54:30.347Z,11.74
2023-03-21T00:57:39.388Z,11.62
2023-03-21T01:00:43.617Z,11.54
2023-03-21T01:03:51.100Z,11.45
2023-03-21T01:06:55.024Z,11.40
2023-03-21T01:09:57.162Z,11.37
2023-03-21T01:13:00.978Z,11.25
2023-03-21T01:16:07.544Z,11.17
2023-03-21T01:19:24.983Z,11.12
2023-03-21T01:22:28.812Z,11.06
2023-03-21T01:25:31.305Z,10.90
2023-03-21T01:28:35.673Z,10.98
2023-03-21T01:31:38.543Z,11.05
2023-03-21T01:34:42.151Z,11.06
2023-03-21T01:37:44.891Z,10.97
2023-03-21T01:40:49.086Z,10.87
2023-03-21T01:43:53.129Z,10.81
2023-03-21T01:47:12.776Z,10.74
2023-03-21T01:50:17.162Z,10.81
2023-03-21T01:53:24.016Z,10.86
2023-03-21T01:56:33.129Z,10.83
2023-03-21T01:59:51.342Z,10.72
2023-03-21T02:03:11.355Z,10.68
2023-03-21T02:06:37.329Z,10.61
2023-03-21T02:09:44.436Z,10.59
2023-03-21T02:12:48.201Z,10.53
2023-03-21T02:16:01.564Z,10.51
2023-03-21T02:19:04.112Z,10.46
2023-03-21T02:22:10.229Z,10.46
2023-03-21T02:25:43.267Z,10.51
2023-03-21T02:28:56.037Z,10.49
2023-03-21T02:32:31.534Z,10.56
2023-03-21T02:36:16.839Z,10.69
2023-03-21T02:39:28.500Z,10.90
2023-03-21T02:43:01.262Z,11.02
2023-03-21T02:46:19.422Z,11.01
2023-03-21T02:49:27.873Z,10.92
2023-03-21T02:52:39.287Z,10.91
2023-03-21T02:55:43.782Z,10.99
2023-03-21T02:58:48.376Z,11.15
2023-03-21T03:01:52.765Z,11.16
2023-03-21T03:04:55.694Z,11.10
2023-03-21T03:08:14.197Z,11.05
2023-03-21T03:11:25.548Z,11.07
2023-03-21T03:14:56.474Z,11.06
2023-03-21T03:18:21.030Z,10.97
2023-03-21T03:21:32.687Z,10.91
2023-03-21T03:25:23.191Z,10.85
2023-03-21T03:28:36.436Z,10.81
2023-03-21T03:31:46.273Z,10.79
2023-03-21T03:34:51.903Z,10.78
2023-03-21T03:38:00.297Z,10.77
2023-03-21T03:41:11.057Z,10.75
2023-03-21T03:44:14.537Z,10.75
2023-03-21T03:47:50.702Z,10.70
2023-03-21T03:51:10.404Z,10.69
2023-03-21T03:54:18.981Z,10.72
2023-03-21T03:57:22.074Z,10.67
2023-03-21T04:00:25.379Z,10.69
2023-03-21T04:03:29.362Z,10.76
2023-03-21T04:06:33.141Z,10.76
2023-03-21T04:09:44.210Z,10.71
2023-03-21T04:12:47.352Z,10.62
2023-03-21T04:15:50.378Z,10.67
2023-03-21T04:18:53.147Z,10.66
2023-03-21T04:21:55.646Z,10.64
2023-03-21T04:24:59.202Z,10.56
2023-03-21T04:28:03.453Z,10.68
2023-03-21T04:31:24.218Z,10.61
2023-03-21T04:34:28.787Z,10.56
2023-03-21T04:37:33.918Z,10.55
2023-03-21T04:40:37.127Z,10.45
2023-03-21T04:43:39.451Z,10.37
2023-03-21T04:46:42.451Z,10.42
2023-03-21T04:49:44.773Z,10.51
2023-03-21T04:52:47.319Z,10.54
2023-03-21T04:55:52.873Z,10.46
2023-03-21T04:58:57.522Z,10.47
2023-03-21T05:02:00.228Z,10.38
2023-03-21T05:05:02.680Z,10.35
2023-03-21T05:08:06.216Z,10.43
2023-03-21T05:11:08.758Z,10.36
2023-03-21T05:14:15.567Z,10.36
2023-03-21T05:17:23.284Z,10.39
2023-03-21T05:20:26.110Z,10.34
2023-03-21T05:23:31.747Z,10.40
2023-03-21T05:26:34.133Z,10.49
2023-03-21T05:29:39.365Z,10.65
2023-03-21T05:32:41.747Z,10.75
2023-03-21T05:35:44.564Z,11.08
2023-03-21T05:38:47.472Z,11.69
2023-03-21T05:41:51.552Z,12.34
2023-03-21T05:44:53.806Z,12.05
2023-03-21T05:47:57.300Z,13.65
2023-03-21T05:51:02.738Z,16.01
2023-03-21T05:54:06.883Z,17.76
2023-03-21T05:57:09.766Z,18.43
2023-03-21T06:00:13.978Z,18.10
2023-03-21T06:03:17.744Z,16.26
2023-03-21T06:06:21.853Z,14.59
2023-03-21T06:09:26.126Z,13.80
2023-03-21T06:12:29.482Z,13.44
2023-03-21T06:15:33.111Z,13.28
2023-03-21T06:18:36.164Z,13.05
2023-03-21T06:21:38.905Z,12.85
2023-03-21T06:24:42.579Z,13.43
2023-03-21T06:27:44.855Z,14.27
2023-03-21T06:30:47.930Z,14.30
2023-03-21T06:33:51.744Z,16.45
2023-03-21T06:36:54.739Z,19.37
2023-03-21T06:40:01.957Z,22.01
2023-03-21T06:43:05.799Z,21.47
2023-03-21T06:46:08.517Z,20.38
2023-03-21T06:49:11.789Z,17.75
2023-03-21T06:52:14.072Z,16.39
2023-03-21T06:55:19.333Z,15.72
2023-03-21T06:58:22.743Z,15.30
2023-03-21T07:01:27.863Z,15.39
2023-03-21T07:04:32.310Z,15.40
2023-03-21T07:07:35.294Z,16.00
2023-03-21T07:10:44.975Z,18.46
2023-03-21T07:13:48.817Z,19.25
2023-03-21T07:16:51.317Z,19.80
2023-03-21T07:19:54.115Z,19.34
2023-03-21T07:22:56.538Z,20.22
2023-03-21T07:26:01.981Z,19.46
2023-03-21T07:29:04.932Z,18.34
2023-03-21T07:32:07.901Z,16.74
2023-03-21T07:35:12.521Z,16.05
2023-03-21T07:38:16.858Z,15.38
2023-03-21T07:41:19.062Z,14.69
2023-03-21T07:44:23.283Z,14.64
2023-03-21T07:47:29.637Z,14.43
2023-03-21T07:50:32.593Z,14.60
2023-03-21T07:53:35.424Z,14.75
2023-03-21T07:56:38.024Z,14.54
2023-03-21T07:59:40.361Z,14.39
2023-03-21T08:02:42.903Z,14.35
2023-03-21T08:05:46.554Z,14.36
2023-03-21T08:08:48.921Z,14.21
2023-03-21T08:11:51.550Z,14.31
2023-03-21T08:14:53.793Z,14.39
2023-03-21T08:17:56.238Z,14.53
2023-03-21T08:20:58.807Z,14.66
2023-03-21T08:24:01.333Z,14.76
2023-03-21T08:27:03.697Z,14.64
2023-03-21T08:30:06.889Z,14.69
2023-03-21T08:33:09.299Z,14.84
2023-03-21T08:36:12.042Z,14.84
2023-03-21T08:39:14.346Z,14.83
2023-03-21T08:42:17.001Z,15.00
2023-03-21T08:45:19.383Z,15.28
2023-03-21T08:48:22.058Z,15.45
2023-03-21T08:51:24.290Z,15.65
2023-03-21T08:54:27.130Z,15.62
2023-03-21T08:57:29.920Z,15.33
2023-03-21T09:00:32.825Z,15.53
2023-03-21T09:03:35.017Z,15.74
2023-03-21T09:06:40.953Z,15.65
2023-03-21T09:09:43.698Z,15.50
2023-03-21T09:12:46.275Z,15.64
2023-03-21T09:15:48.695Z,15.96
2023-03-21T09:18:55.620Z,15.92
2023-03-21T09:21:58.318Z,16.33
2023-03-21T09:25:08.181Z,16.20
2023-03-21T09:28:13.266Z,15.92
2023-03-21T09:31:21.641Z,16.29
2023-03-21T09:34:24.654Z,16.35
2023-03-21T09:37:27.741Z,16.53
2023-03-21T09:40:36.161Z,16.38
2023-03-21T09:43:51.197Z,15.95
2023-03-21T09:47:04.431Z,15.90
2023-03-21T09:50:21.888Z,15.91
2023-03-21T09:53:33.802Z,16.54
2023-03-21T09:56:38.999Z,16.82
2023-03-21T09:59:42.952Z,16.64
2023-03-21T10:02:49.559Z,16.41
2023-03-21T10:05:58.820Z,17.09
2023-03-21T10:09:07.474Z,17.94
2023-03-21T10:12:20.932Z,19.03
2023-03-21T10:15:26.013Z,20.54
2023-03-21T10:18:31.284Z,20.81
2023-03-21T10:25:05.359Z,22.76
2023-03-21T10:28:15.027Z,21.96
2023-03-21T10:31:26.231Z,21.14
2023-03-21T10:34:35.746Z,20.40
2023-03-21T10:37:38.540Z,19.78
2023-03-21T10:40:40.821Z,19.04
2023-03-21T10:43:45.439Z,19.23
2023-03-21T10:46:59.280Z,19.13
2023-03-21T10:50:08.979Z,19.37
2023-03-21T10:53:20.746Z,19.89
2023-03-21T10:56:27.806Z,20.03
2023-03-21T10:59:38.230Z,19.85
2023-03-21T11:02:41.654Z,20.71
2023-03-21T11:05:44.159Z,21.10
2023-03-21T11:08:54.337Z,19.52
2023-03-21T11:12:10.946Z,19.73
2023-03-21T11:15:41.445Z,20.38
2023-03-21T11:18:49.429Z,21.40
2023-03-21T11:21:51.957Z,22.82
2023-03-21T11:24:59.624Z,22.65
2023-03-21T11:28:08.740Z,23.83
2023-03-21T11:31:11.381Z,25.23
2023-03-21T11:34:27.115Z,27.20
2023-03-21T11:37:38.160Z,25.54
2023-03-21T11:40:54.160Z,22.16
2023-03-21T11:43:58.007Z,22.67
2023-03-21T11:47:01.867Z,23.66
2023-03-21T11:50:18.140Z,23.58
2023-03-21T11:53:30.954Z,24.03
2023-03-21T11:56:35.376Z,26.13
2023-03-21T11:59:48.602Z,26.77
2023-03-21T12:03:49.786Z,28.44
2023-03-21T12:06:55.468Z,28.13
2023-03-21T12:10:25.788Z,28.91
2023-03-21T12:14:02.768Z,29.23
2023-03-21T12:17:49.216Z,25.50
2023-03-21T12:20:56.914Z,22.39
2023-03-21T12:24:23.971Z,21.39
2023-03-21T12:27:42.040Z,22.12
2023-03-21T12:31:15.581Z,21.85
2023-03-21T12:34:27.985Z,20.90
2023-03-21T12:37:32.507Z,19.58
2023-03-21T12:41:11.924Z,18.61
2023-03-21T12:44:17.453Z,17.97
2023-03-21T12:47:28.397Z,17.71
2023-03-21T12:50:37.646Z,17.01
2023-03-21T12:53:45.808Z,16.92
2023-03-21T12:57:19.977Z,16.80
2023-03-21T13:00:28.439Z,17.02
2023-03-21T13:03:45.399Z,16.81
2023-03-21T13:06:52.342Z,16.83
2023-03-21T13:09:55.330Z,18.63
2023-03-21T13:13:13.551Z,21.94
2023-03-21T13:16:28.213Z,23.77
2023-03-21T13:19:55.958Z,23.97
2023-03-21T13:22:59.466Z,20.92
2023-03-21T13:26:02.343Z,20.07
2023-03-21T13:29:29.585Z,19.11
2023-03-21T13:32:39.101Z,18.66
2023-03-21T13:35:44.240Z,18.09
2023-03-21T13:38:51.704Z,18.10
2023-03-21T13:41:54.822Z,18.12
2023-03-21T13:44:59.566Z,17.83
2023-03-21T13:48:25.559Z,17.49
2023-03-21T13:51:27.975Z,17.38
2023-03-21T13:54:45.920Z,17.14
2023-03-21T13:57:49.312Z,16.90
2023-03-21T14:01:20.556Z,16.97
2023-03-21T14:04:42.109Z,17.39
2023-03-21T14:07:59.398Z,18.12
2023-03-21T14:11:07.915Z,17.91
2023-03-21T14:14:10.474Z,18.58
2023-03-21T14:17:31.559Z,18.82
2023-03-21T14:20:38.592Z,19.04
2023-03-21T14:23:41.199Z,19.16
2023-03-21T14:26:46.721Z,18.93
2023-03-21T14:29:53.281Z,18.46
2023-03-21T14:33:15.655Z,18.50
2023-03-21T14:36:25.744Z,18.42
2023-03-21T14:39:33.151Z,18.61
2023-03-21T14:42:37.569Z,18.43
2023-03-21T14:45:40.156Z,18.56
2023-03-21T14:48:42.941Z,18.32
2023-03-21T14:51:46.914Z,17.81
2023-03-21T14:54:50.243Z,17.83
2023-03-21T14:57:52.579Z,17.71
2023-03-21T15:00:58.065Z,17.77
2023-03-21T15:04:04.223Z,17.70
2023-03-21T15:07:08.102Z,17.97
2023-03-21T15:10:17.963Z,17.97
2023-03-21T15:13:25.282Z,17.97
2023-03-21T15:16:28.043Z,17.84
2023-03-21T15:19:37.201Z,17.59
2023-03-21T15:22:45.502Z,17.43
2023-03-21T15:25:48.344Z,17.28
2023-03-21T15:28:57.037Z,17.32
2023-03-21T15:32:03.283Z,17.17
2023-03-21T15:35:13.340Z,16.90
2023-03-21T15:38:39.947Z,16.83
2023-03-21T15:41:55.571Z,16.56
2023-03-21T15:45:09.952Z,16.61
2023-03-21T15:48:14.687Z,16.62
2023-03-21T15:51:22.988Z,16.40
2023-03-21T15:54:32.416Z,16.26
2023-03-21T15:57:34.993Z,16.05
2023-03-21T16:00:43.791Z,15.82
2023-03-21T16:03:58.017Z,15.82
2023-03-21T16:07:04.019Z,15.74
2023-03-21T16:10:28.044Z,15.60
2023-03-21T16:13:30.226Z,15.54
2023-03-21T16:16:33.089Z,15.39
2023-03-21T16:19:35.348Z,15.39
2023-03-21T16:22:37.785Z,15.28
2023-03-21T16:25:41.052Z,15.20
2023-03-21T16:28:44.318Z,15.07
2023-03-21T16:31:48.686Z,15.01
2023-03-21T16:34:53.533Z,14.79
2023-03-21T16:37:55.867Z,14.81
2023-03-21T16:40:58.370Z,14.68
2023-03-21T16:44:01.237Z,14.53
2023-03-21T16:47:03.737Z,14.45
2023-03-21T16:50:21.155Z,14.52
2023-03-21T16:53:23.661Z,14.28
2023-03-21T16:56:37.268Z,14.31
2023-03-21T16:59:41.514Z,14.40
2023-03-21T17:02:43.836Z,14.42
2023-03-21T17:05:46.468Z,14.13
2023-03-21T17:08:48.678Z,13.93
2023-03-21T17:11:51.356Z,13.92
2023-03-21T17:14:53.540Z,13.72
2023-03-21T17:17:56.030Z,13.61
2023-03-21T17:20:58.337Z,13.66
2023-03-21T17:24:00.812Z,13.59
2023-03-21T17:27:04.604Z,13.49
2023-03-21T17:30:18.771Z,13.54
2023-03-21T17:33:20.900Z,13.64
2023-03-21T17:36:38.086Z,13.48
2023-03-21T17:39:40.292Z,13.19
2023-03-21T17:42:42.837Z,13.07
2023-03-21T17:45:45.101Z,13.19
2023-03-21T17:48:47.981Z,13.19
2023-03-21T17:51:50.889Z,13.23
2023-03-21T17:54:55.708Z,13.30
2023-03-21T17:57:57.900Z,13.27
2023-03-21T18:01:00.427Z,13.24
2023-03-21T18:04:05.037Z,13.16
2023-03-21T18:07:16.184Z,13.14
2023-03-21T18:10:27.691Z,13.12
2023-03-21T18:13:29.886Z,13.00
2023-03-21T18:16:33.320Z,13.04
2023-03-21T18:19:38.232Z,12.83
2023-03-21T18:22:40.758Z,12.95
2023-03-21T18:25:43.055Z,13.00
2023-03-21T18:28:46.780Z,13.02
2023-03-21T18:32:05.184Z,12.94
2023-03-21T18:35:10.925Z,13.00
2023-03-21T18:38:13.905Z,12.99
2023-03-21T18:41:18.601Z,13.07
2023-03-21T18:44:25.213Z,13.08
2023-03-21T18:47:27.989Z,13.09
2023-03-21T18:50:30.956Z,12.96
2023-03-21T18:53:33.399Z,12.92
2023-03-21T18:57:27.420Z,12.94
2023-03-21T19:00:00.882Z,12.90
2023-03-21T19:03:18.787Z,12.81
2023-03-21T19:06:24.000Z,12.76
2023-03-21T19:09:30.935Z,12.81
2023-03-21T19:12:34.781Z,12.83
2023-03-21T19:15:38.430Z,12.86
2023-03-21T19:18:57.419Z,12.72
2023-03-21T19:21:59.766Z,12.64
2023-03-21T19:25:02.294Z,12.67
2023-03-21T19:28:04.850Z,12.43
2023-03-21T19:31:08.389Z,12.41
2023-03-21T19:34:13.734Z,12.39
2023-03-21T19:37:19.230Z,12.21
2023-03-21T19:40:21.642Z,11.99
2023-03-21T19:43:32.672Z,12.01
2023-03-21T19:46:35.987Z,11.85
2023-03-21T19:50:20.820Z,11.85
2023-03-21T19:53:03.349Z,11.85
2023-03-21T19:56:19.685Z,11.74
2023-03-21T19:59:23.598Z,11.70
2023-03-21T20:02:35.561Z,11.68
2023-03-21T20:05:39.483Z,11.71
2023-03-21T20:12:05.736Z,11.70
2023-03-21T20:15:17.203Z,11.68
2023-03-21T20:18:21.530Z,11.50
2023-03-21T20:21:25.775Z,11.32
2023-03-21T20:24:28.477Z,11.29
2023-03-21T20:27:31.946Z,11.59
2023-03-21T20:30:34.542Z,11.76
2023-03-21T20:33:37.139Z,11.86
2023-03-21T20:36:41.272Z,11.89
2023-03-21T20:39:45.236Z,11.94
2023-03-21T20:42:48.904Z,11.96
2023-03-21T20:45:58.553Z,11.96
2023-03-21T20:49:00.994Z,12.00
2023-03-21T20:55:29.531Z,11.84
2023-03-21T20:58:57.130Z,11.88
2023-03-21T21:01:57.763Z,11.86
2023-03-21T21:08:22.833Z,11.67
2023-03-21T21:12:04.975Z,11.48
2023-03-21T21:14:48.241Z,11.52
2023-03-21T21:18:08.555Z,11.60
2023-03-21T21:21:11.173Z,11.60
2023-03-21T21:24:14.693Z,11.61
2023-03-21T21:27:17.363Z,11.70
2023-03-21T21:30:20.142Z,11.68
2023-03-21T21:33:22.696Z,11.63
2023-03-21T21:36:25.126Z,11.56
2023-03-21T21:39:27.756Z,11.52
2023-03-21T21:42:29.868Z,11.54
2023-03-21T21:45:32.472Z,11.59
2023-03-21T21:48:34.691Z,11.66
2023-03-21T21:51:37.362Z,11.70
2023-03-21T21:54:46.028Z,11.68
2023-03-21T21:57:50.612Z,11.59
2023-03-21T22:00:53.622Z,11.61
2023-03-21T22:03:57.628Z,11.54
2023-03-21T22:06:59.862Z,11.50
2023-03-21T22:10:02.361Z,11.40
2023-03-21T22:13:04.815Z,11.26
2023-03-21T22:16:07.695Z,11.34
2023-03-21T22:19:10.180Z,11.36
2023-03-21T22:22:12.659Z,11.22
2023-03-21T22:25:16.437Z,11.09
2023-03-21T22:28:21.953Z,10.85
2023-03-21T22:31:25.952Z,10.57
2023-03-21T22:34:28.619Z,10.39
2023-03-21T22:37:32.978Z,10.21
2023-03-21T22:40:35.499Z,10.11
2023-03-21T22:43:37.922Z,10.02
2023-03-21T22:46:40.633Z,9.92
2023-03-21T22:49:45.073Z,9.85
2023-03-21T22:52:47.554Z,9.83
2023-03-21T22:55:49.891Z,9.80
2023-03-21T22:58:52.607Z,9.95
2023-03-21T23:01:55.516Z,10.22
2023-03-21T23:04:57.967Z,10.39
2023-03-21T23:08:00.486Z,10.36
2023-03-21T23:11:07.669Z,10.41
2023-03-21T23:14:10.174Z,10.40
2023-03-21T23:17:12.745Z,10.14
2023-03-21T23:20:15.395Z,9.92
2023-03-21T23:23:18.254Z,9.84
2023-03-21T23:26:22.812Z,9.87
2023-03-21T23:29:25.340Z,9.75
2023-03-21T23:32:27.658Z,9.61
2023-03-21T23:35:30.276Z,9.56
2023-03-21T23:38:32.964Z,9.66
2023-03-21T23:41:35.769Z,9.58
2023-03-21T23:44:38.049Z,9.53
2023-03-21T23:47:40.521Z,9.60
2023-03-21T23:50:42.697Z,9.56
2023-03-21T23:53:46.625Z,9.55
2023-03-21T23:56:48.825Z,9.68
2023-03-21T23:59:55.377Z,9.60
